sensor_id;sensor_type;location;lat;lon;timestamp;P1;durP1;ratioP1;P2;durP2;ratioP2
45836;SDS011;31548;51.420;-0.040;2023-04-09T00:01:54;27.40;;;13.95;;
45836;SDS011;31548;51.420;-0.040;2023-04-09T00:04:22;25.98;;;13.65;;
45836;SDS011;31548;51.420;-0.040;2023-04-09T00:06:49;25.00;;;11.35;;
45836;SDS011;31548;51.420;-0.040;2023-04-09T00:09:16;22.73;;;12.35;;
45836;SDS011;31548;51.420;-0.040;2023-04-09T00:11:44;23.92;;;13.15;;
45836;SDS011;31548;51.420;-0.040;2023-04-09T00:14:11;28.48;;;15.20;;
45836;SDS011;31548;51.420;-0.040;2023-04-09T00:16:39;26.77;;;14.82;;
45836;SDS011;31548;51.420;-0.040;2023-04-09T00:19:06;29.08;;;15.30;;
45836;SDS011;31548;51.420;-0.040;2023-04-09T00:21:33;31.17;;;14.93;;
45836;SDS011;31548;51.420;-0.040;2023-04-09T00:24:01;34.75;;;16.23;;
45836;SDS011;31548;51.420;-0.040;2023-04-09T00:26:29;28.75;;;16.00;;
45836;SDS011;31548;51.420;-0.040;2023-04-09T00:28:57;37.38;;;16.58;;
45836;SDS011;31548;51.420;-0.040;2023-04-09T00:31:25;31.73;;;15.43;;
45836;SDS011;31548;51.420;-0.040;2023-04-09T00:33:52;32.05;;;15.15;;
45836;SDS011;31548;51.420;-0.040;2023-04-09T00:36:20;29.73;;;15.43;;
45836;SDS011;31548;51.420;-0.040;2023-04-09T00:38:48;27.80;;;14.40;;
45836;SDS011;31548;51.420;-0.040;2023-04-09T00:41:17;31.25;;;15.38;;
45836;SDS011;31548;51.420;-0.040;2023-04-09T00:43:44;28.92;;;13.63;;
45836;SDS011;31548;51.420;-0.040;2023-04-09T00:46:12;27.98;;;14.40;;
45836;SDS011;31548;51.420;-0.040;2023-04-09T00:48:40;29.70;;;16.10;;
45836;SDS011;31548;51.420;-0.040;2023-04-09T00:51:08;30.70;;;14.80;;
45836;SDS011;31548;51.420;-0.040;2023-04-09T00:53:35;29.38;;;15.18;;
45836;SDS011;31548;51.420;-0.040;2023-04-09T00:56:03;29.20;;;15.02;;
45836;SDS011;31548;51.420;-0.040;2023-04-09T00:58:31;28.77;;;14.90;;
45836;SDS011;31548;51.420;-0.040;2023-04-09T01:00:59;25.33;;;13.65;;
45836;SDS011;31548;51.420;-0.040;2023-04-09T01:03:27;28.15;;;14.35;;
45836;SDS011;31548;51.420;-0.040;2023-04-09T01:08:40;32.58;;;15.73;;
45836;SDS011;31548;51.420;-0.040;2023-04-09T01:11:29;32.47;;;15.70;;
45836;SDS011;31548;51.420;-0.040;2023-04-09T01:14:11;30.67;;;15.93;;
45836;SDS011;31548;51.420;-0.040;2023-04-09T01:16:41;31.40;;;15.55;;
45836;SDS011;31548;51.420;-0.040;2023-04-09T01:19:50;27.50;;;15.60;;
45836;SDS011;31548;51.420;-0.040;2023-04-09T01:22:13;30.00;;;15.57;;
45836;SDS011;31548;51.420;-0.040;2023-04-09T01:25:16;31.80;;;15.32;;
45836;SDS011;31548;51.420;-0.040;2023-04-09T01:28:13;30.58;;;16.00;;
45836;SDS011;31548;51.420;-0.040;2023-04-09T01:30:49;33.40;;;16.73;;
45836;SDS011;31548;51.420;-0.040;2023-04-09T01:33:19;27.75;;;15.57;;
45836;SDS011;31548;51.420;-0.040;2023-04-09T01:35:48;30.10;;;16.58;;
45836;SDS011;31548;51.420;-0.040;2023-04-09T01:38:17;31.65;;;16.95;;
45836;SDS011;31548;51.420;-0.040;2023-04-09T01:40:47;35.33;;;17.48;;
45836;SDS011;31548;51.420;-0.040;2023-04-09T01:43:15;31.15;;;16.10;;
45836;SDS011;31548;51.420;-0.040;2023-04-09T01:45:44;31.85;;;16.80;;
45836;SDS011;31548;51.420;-0.040;2023-04-09T01:48:13;30.55;;;15.50;;
45836;SDS011;31548;51.420;-0.040;2023-04-09T01:50:42;33.78;;;17.33;;
45836;SDS011;31548;51.420;-0.040;2023-04-09T01:53:10;34.28;;;16.85;;
45836;SDS011;31548;51.420;-0.040;2023-04-09T01:55:37;32.38;;;16.70;;
45836;SDS011;31548;51.420;-0.040;2023-04-09T01:58:05;33.10;;;18.23;;
45836;SDS011;31548;51.420;-0.040;2023-04-09T02:00:39;32.33;;;16.95;;
45836;SDS011;31548;51.420;-0.040;2023-04-09T02:03:17;35.58;;;16.73;;
45836;SDS011;31548;51.420;-0.040;2023-04-09T02:06:02;33.42;;;17.08;;
45836;SDS011;31548;51.420;-0.040;2023-04-09T02:08:35;35.35;;;17.52;;
45836;SDS011;31548;51.420;-0.040;2023-04-09T02:11:04;37.47;;;17.42;;
45836;SDS011;31548;51.420;-0.040;2023-04-09T02:13:36;32.75;;;16.63;;
45836;SDS011;31548;51.420;-0.040;2023-04-09T02:16:07;35.13;;;17.60;;
45836;SDS011;31548;51.420;-0.040;2023-04-09T02:18:36;34.80;;;16.65;;
45836;SDS011;31548;51.420;-0.040;2023-04-09T02:21:04;27.92;;;15.73;;
45836;SDS011;31548;51.420;-0.040;2023-04-09T02:23:32;35.25;;;18.10;;
45836;SDS011;31548;51.420;-0.040;2023-04-09T02:25:59;31.63;;;16.13;;
45836;SDS011;31548;51.420;-0.040;2023-04-09T02:28:27;33.40;;;15.85;;
45836;SDS011;31548;51.420;-0.040;2023-04-09T02:30:55;25.67;;;14.43;;
45836;SDS011;31548;51.420;-0.040;2023-04-09T02:33:22;28.80;;;14.35;;
45836;SDS011;31548;51.420;-0.040;2023-04-09T02:35:50;30.38;;;15.45;;
45836;SDS011;31548;51.420;-0.040;2023-04-09T02:38:18;34.88;;;15.20;;
45836;SDS011;31548;51.420;-0.040;2023-04-09T02:40:45;28.80;;;15.93;;
45836;SDS011;31548;51.420;-0.040;2023-04-09T02:43:13;30.45;;;14.95;;
45836;SDS011;31548;51.420;-0.040;2023-04-09T02:45:40;29.17;;;15.27;;
45836;SDS011;31548;51.420;-0.040;2023-04-09T02:48:07;30.27;;;15.85;;
45836;SDS011;31548;51.420;-0.040;2023-04-09T02:50:35;32.13;;;16.05;;
45836;SDS011;31548;51.420;-0.040;2023-04-09T02:53:03;32.88;;;15.85;;
45836;SDS011;31548;51.420;-0.040;2023-04-09T02:55:31;30.20;;;15.50;;
45836;SDS011;31548;51.420;-0.040;2023-04-09T02:57:58;32.45;;;16.15;;
45836;SDS011;31548;51.420;-0.040;2023-04-09T03:00:26;28.30;;;14.68;;
45836;SDS011;31548;51.420;-0.040;2023-04-09T03:02:54;35.63;;;16.80;;
45836;SDS011;31548;51.420;-0.040;2023-04-09T03:05:22;28.75;;;15.57;;
45836;SDS011;31548;51.420;-0.040;2023-04-09T03:07:49;32.55;;;16.17;;
45836;SDS011;31548;51.420;-0.040;2023-04-09T03:10:17;33.35;;;16.45;;
45836;SDS011;31548;51.420;-0.040;2023-04-09T03:12:44;28.92;;;15.25;;
45836;SDS011;31548;51.420;-0.040;2023-04-09T03:15:13;30.30;;;15.32;;
45836;SDS011;31548;51.420;-0.040;2023-04-09T03:17:40;31.67;;;15.07;;
45836;SDS011;31548;51.420;-0.040;2023-04-09T03:20:08;30.73;;;15.48;;
45836;SDS011;31548;51.420;-0.040;2023-04-09T03:22:37;29.20;;;14.68;;
45836;SDS011;31548;51.420;-0.040;2023-04-09T03:25:17;36.03;;;16.80;;
45836;SDS011;31548;51.420;-0.040;2023-04-09T03:27:49;29.17;;;15.15;;
45836;SDS011;31548;51.420;-0.040;2023-04-09T03:30:24;31.90;;;16.60;;
45836;SDS011;31548;51.420;-0.040;2023-04-09T03:32:51;31.65;;;16.10;;
45836;SDS011;31548;51.420;-0.040;2023-04-09T03:35:22;29.17;;;15.70;;
45836;SDS011;31548;51.420;-0.040;2023-04-09T03:37:54;33.97;;;16.30;;
45836;SDS011;31548;51.420;-0.040;2023-04-09T03:40:22;37.95;;;17.02;;
45836;SDS011;31548;51.420;-0.040;2023-04-09T03:42:49;29.60;;;15.38;;
45836;SDS011;31548;51.420;-0.040;2023-04-09T03:45:17;34.53;;;17.10;;
45836;SDS011;31548;51.420;-0.040;2023-04-09T03:47:48;29.90;;;16.17;;
45836;SDS011;31548;51.420;-0.040;2023-04-09T03:50:20;31.35;;;16.40;;
45836;SDS011;31548;51.420;-0.040;2023-04-09T03:52:53;33.97;;;16.58;;
45836;SDS011;31548;51.420;-0.040;2023-04-09T03:55:21;33.92;;;16.70;;
45836;SDS011;31548;51.420;-0.040;2023-04-09T03:57:50;30.92;;;15.27;;
45836;SDS011;31548;51.420;-0.040;2023-04-09T04:00:20;28.88;;;14.73;;
45836;SDS011;31548;51.420;-0.040;2023-04-09T04:03:10;30.13;;;15.25;;
45836;SDS011;31548;51.420;-0.040;2023-04-09T04:06:07;34.17;;;16.20;;
45836;SDS011;31548;51.420;-0.040;2023-04-09T04:09:04;32.00;;;16.63;;
45836;SDS011;31548;51.420;-0.040;2023-04-09T04:11:42;33.45;;;15.73;;
45836;SDS011;31548;51.420;-0.040;2023-04-09T04:14:10;30.80;;;15.30;;
45836;SDS011;31548;51.420;-0.040;2023-04-09T04:16:39;29.95;;;15.52;;
45836;SDS011;31548;51.420;-0.040;2023-04-09T04:19:08;33.45;;;16.65;;
45836;SDS011;31548;51.420;-0.040;2023-04-09T04:21:42;34.78;;;17.23;;
45836;SDS011;31548;51.420;-0.040;2023-04-09T04:24:09;32.72;;;16.48;;
45836;SDS011;31548;51.420;-0.040;2023-04-09T04:26:38;30.77;;;15.48;;
45836;SDS011;31548;51.420;-0.040;2023-04-09T04:29:07;31.25;;;17.10;;
45836;SDS011;31548;51.420;-0.040;2023-04-09T04:31:55;35.70;;;16.00;;
45836;SDS011;31548;51.420;-0.040;2023-04-09T04:34:26;36.97;;;16.02;;
45836;SDS011;31548;51.420;-0.040;2023-04-09T04:39:30;34.13;;;16.40;;
45836;SDS011;31548;51.420;-0.040;2023-04-09T04:42:02;32.35;;;14.70;;
45836;SDS011;31548;51.420;-0.040;2023-04-09T04:44:30;32.80;;;16.08;;
45836;SDS011;31548;51.420;-0.040;2023-04-09T04:47:09;32.67;;;15.77;;
45836;SDS011;31548;51.420;-0.040;2023-04-09T04:49:37;30.90;;;14.35;;
45836;SDS011;31548;51.420;-0.040;2023-04-09T04:52:06;34.10;;;16.77;;
45836;SDS011;31548;51.420;-0.040;2023-04-09T04:54:38;35.10;;;17.55;;
45836;SDS011;31548;51.420;-0.040;2023-04-09T04:57:06;30.60;;;14.73;;
45836;SDS011;31548;51.420;-0.040;2023-04-09T04:59:39;32.15;;;16.67;;
45836;SDS011;31548;51.420;-0.040;2023-04-09T05:02:09;31.83;;;16.08;;
45836;SDS011;31548;51.420;-0.040;2023-04-09T05:04:57;31.05;;;15.38;;
45836;SDS011;31548;51.420;-0.040;2023-04-09T05:07:32;34.90;;;16.70;;
45836;SDS011;31548;51.420;-0.040;2023-04-09T05:10:00;36.00;;;18.13;;
45836;SDS011;31548;51.420;-0.040;2023-04-09T05:12:33;33.40;;;15.98;;
45836;SDS011;31548;51.420;-0.040;2023-04-09T05:15:01;34.25;;;17.38;;
45836;SDS011;31548;51.420;-0.040;2023-04-09T05:17:29;30.75;;;15.55;;
45836;SDS011;31548;51.420;-0.040;2023-04-09T05:19:57;29.88;;;15.77;;
45836;SDS011;31548;51.420;-0.040;2023-04-09T05:22:32;33.60;;;15.90;;
45836;SDS011;31548;51.420;-0.040;2023-04-09T05:25:00;34.83;;;17.15;;
45836;SDS011;31548;51.420;-0.040;2023-04-09T05:27:28;34.13;;;15.93;;
45836;SDS011;31548;51.420;-0.040;2023-04-09T05:29:59;32.53;;;15.95;;
45836;SDS011;31548;51.420;-0.040;2023-04-09T05:32:27;31.58;;;17.00;;
45836;SDS011;31548;51.420;-0.040;2023-04-09T05:34:56;30.77;;;15.75;;
45836;SDS011;31548;51.420;-0.040;2023-04-09T05:37:25;36.33;;;16.90;;
45836;SDS011;31548;51.420;-0.040;2023-04-09T05:39:54;32.20;;;15.73;;
45836;SDS011;31548;51.420;-0.040;2023-04-09T05:42:23;32.63;;;16.55;;
45836;SDS011;31548;51.420;-0.040;2023-04-09T05:44:58;30.15;;;15.40;;
45836;SDS011;31548;51.420;-0.040;2023-04-09T05:47:26;37.88;;;17.38;;
45836;SDS011;31548;51.420;-0.040;2023-04-09T05:50:02;37.00;;;17.58;;
45836;SDS011;31548;51.420;-0.040;2023-04-09T05:52:30;35.38;;;17.13;;
45836;SDS011;31548;51.420;-0.040;2023-04-09T05:54:58;33.38;;;16.80;;
45836;SDS011;31548;51.420;-0.040;2023-04-09T05:57:38;40.03;;;17.85;;
45836;SDS011;31548;51.420;-0.040;2023-04-09T06:00:06;36.58;;;17.65;;
45836;SDS011;31548;51.420;-0.040;2023-04-09T06:02:43;31.63;;;15.93;;
45836;SDS011;31548;51.420;-0.040;2023-04-09T06:05:11;37.33;;;18.38;;
45836;SDS011;31548;51.420;-0.040;2023-04-09T06:07:39;35.28;;;17.60;;
45836;SDS011;31548;51.420;-0.040;2023-04-09T06:10:07;48.63;;;21.90;;
45836;SDS011;31548;51.420;-0.040;2023-04-09T06:12:35;40.13;;;20.52;;
45836;SDS011;31548;51.420;-0.040;2023-04-09T06:15:03;40.45;;;19.50;;
45836;SDS011;31548;51.420;-0.040;2023-04-09T06:17:32;45.88;;;20.80;;
45836;SDS011;31548;51.420;-0.040;2023-04-09T06:19:59;39.05;;;17.63;;
45836;SDS011;31548;51.420;-0.040;2023-04-09T06:22:27;43.97;;;20.17;;
45836;SDS011;31548;51.420;-0.040;2023-04-09T06:24:54;37.60;;;17.85;;
45836;SDS011;31548;51.420;-0.040;2023-04-09T06:27:22;37.67;;;16.50;;
45836;SDS011;31548;51.420;-0.040;2023-04-09T06:29:50;35.53;;;16.83;;
45836;SDS011;31548;51.420;-0.040;2023-04-09T06:32:17;31.10;;;15.85;;
45836;SDS011;31548;51.420;-0.040;2023-04-09T06:34:45;39.33;;;16.90;;
45836;SDS011;31548;51.420;-0.040;2023-04-09T06:37:14;39.50;;;16.17;;
45836;SDS011;31548;51.420;-0.040;2023-04-09T06:39:41;36.08;;;17.08;;
45836;SDS011;31548;51.420;-0.040;2023-04-09T06:42:25;34.55;;;15.73;;
45836;SDS011;31548;51.420;-0.040;2023-04-09T06:45:05;34.13;;;15.05;;
45836;SDS011;31548;51.420;-0.040;2023-04-09T06:47:34;37.38;;;17.27;;
45836;SDS011;31548;51.420;-0.040;2023-04-09T06:50:02;33.92;;;16.23;;
45836;SDS011;31548;51.420;-0.040;2023-04-09T06:52:30;30.95;;;13.98;;
45836;SDS011;31548;51.420;-0.040;2023-04-09T06:54:57;33.88;;;14.90;;
45836;SDS011;31548;51.420;-0.040;2023-04-09T06:57:25;38.35;;;17.27;;
45836;SDS011;31548;51.420;-0.040;2023-04-09T06:59:53;34.40;;;16.48;;
45836;SDS011;31548;51.420;-0.040;2023-04-09T07:02:20;34.47;;;15.88;;
45836;SDS011;31548;51.420;-0.040;2023-04-09T07:04:48;28.60;;;13.50;;
45836;SDS011;31548;51.420;-0.040;2023-04-09T07:07:16;32.17;;;13.68;;
45836;SDS011;31548;51.420;-0.040;2023-04-09T07:09:49;29.77;;;14.02;;
45836;SDS011;31548;51.420;-0.040;2023-04-09T07:12:30;32.45;;;15.45;;
45836;SDS011;31548;51.420;-0.040;2023-04-09T07:14:59;33.40;;;15.40;;
45836;SDS011;31548;51.420;-0.040;2023-04-09T07:17:27;31.10;;;14.63;;
45836;SDS011;31548;51.420;-0.040;2023-04-09T07:19:56;31.67;;;15.95;;
45836;SDS011;31548;51.420;-0.040;2023-04-09T07:22:24;30.30;;;14.15;;
45836;SDS011;31548;51.420;-0.040;2023-04-09T07:24:53;35.85;;;17.20;;
45836;SDS011;31548;51.420;-0.040;2023-04-09T07:27:21;37.08;;;16.23;;
45836;SDS011;31548;51.420;-0.040;2023-04-09T07:29:49;35.33;;;16.40;;
45836;SDS011;31548;51.420;-0.040;2023-04-09T07:32:17;39.42;;;17.35;;
45836;SDS011;31548;51.420;-0.040;2023-04-09T07:34:45;33.92;;;17.05;;
45836;SDS011;31548;51.420;-0.040;2023-04-09T07:37:12;35.30;;;16.73;;
45836;SDS011;31548;51.420;-0.040;2023-04-09T07:39:39;31.73;;;15.27;;
45836;SDS011;31548;51.420;-0.040;2023-04-09T07:42:08;38.72;;;18.98;;
45836;SDS011;31548;51.420;-0.040;2023-04-09T07:44:36;39.40;;;18.65;;
45836;SDS011;31548;51.420;-0.040;2023-04-09T07:47:05;35.13;;;17.67;;
45836;SDS011;31548;51.420;-0.040;2023-04-09T07:49:36;41.10;;;18.77;;
45836;SDS011;31548;51.420;-0.040;2023-04-09T07:52:04;37.05;;;18.73;;
45836;SDS011;31548;51.420;-0.040;2023-04-09T07:54:33;39.88;;;17.95;;
45836;SDS011;31548;51.420;-0.040;2023-04-09T07:57:01;30.95;;;15.98;;
45836;SDS011;31548;51.420;-0.040;2023-04-09T07:59:29;38.45;;;19.13;;
45836;SDS011;31548;51.420;-0.040;2023-04-09T08:01:57;36.97;;;18.88;;
45836;SDS011;31548;51.420;-0.040;2023-04-09T08:04:25;35.95;;;18.27;;
45836;SDS011;31548;51.420;-0.040;2023-04-09T08:06:53;34.00;;;17.25;;
45836;SDS011;31548;51.420;-0.040;2023-04-09T08:09:21;33.33;;;17.20;;
45836;SDS011;31548;51.420;-0.040;2023-04-09T08:11:49;34.03;;;18.85;;
45836;SDS011;31548;51.420;-0.040;2023-04-09T08:14:16;37.28;;;19.08;;
45836;SDS011;31548;51.420;-0.040;2023-04-09T08:16:45;31.40;;;17.80;;
45836;SDS011;31548;51.420;-0.040;2023-04-09T08:19:14;33.35;;;17.83;;
45836;SDS011;31548;51.420;-0.040;2023-04-09T08:21:43;39.08;;;19.88;;
45836;SDS011;31548;51.420;-0.040;2023-04-09T08:24:10;29.75;;;15.82;;
45836;SDS011;31548;51.420;-0.040;2023-04-09T08:26:38;36.15;;;17.60;;
45836;SDS011;31548;51.420;-0.040;2023-04-09T08:29:07;36.22;;;18.23;;
45836;SDS011;31548;51.420;-0.040;2023-04-09T08:31:37;36.20;;;17.80;;
45836;SDS011;31548;51.420;-0.040;2023-04-09T08:34:05;23.83;;;12.88;;
45836;SDS011;31548;51.420;-0.040;2023-04-09T08:36:33;34.75;;;17.35;;
45836;SDS011;31548;51.420;-0.040;2023-04-09T08:39:01;30.85;;;16.92;;
45836;SDS011;31548;51.420;-0.040;2023-04-09T08:41:29;30.98;;;15.68;;
45836;SDS011;31548;51.420;-0.040;2023-04-09T08:43:57;24.75;;;12.57;;
45836;SDS011;31548;51.420;-0.040;2023-04-09T08:46:25;33.65;;;17.02;;
45836;SDS011;31548;51.420;-0.040;2023-04-09T08:48:53;33.47;;;16.90;;
45836;SDS011;31548;51.420;-0.040;2023-04-09T08:51:22;32.15;;;17.77;;
45836;SDS011;31548;51.420;-0.040;2023-04-09T08:53:57;36.92;;;17.08;;
45836;SDS011;31548;51.420;-0.040;2023-04-09T08:56:30;32.55;;;17.35;;
45836;SDS011;31548;51.420;-0.040;2023-04-09T08:58:58;21.02;;;12.27;;
45836;SDS011;31548;51.420;-0.040;2023-04-09T09:03:58;27.80;;;14.23;;
45836;SDS011;31548;51.420;-0.040;2023-04-09T09:06:30;27.48;;;14.15;;
45836;SDS011;31548;51.420;-0.040;2023-04-09T09:09:00;35.50;;;17.70;;
45836;SDS011;31548;51.420;-0.040;2023-04-09T09:11:37;34.72;;;18.42;;
45836;SDS011;31548;51.420;-0.040;2023-04-09T09:14:09;30.40;;;16.30;;
45836;SDS011;31548;51.420;-0.040;2023-04-09T09:16:39;28.80;;;15.93;;
45836;SDS011;31548;51.420;-0.040;2023-04-09T09:19:11;32.45;;;16.20;;
45836;SDS011;31548;51.420;-0.040;2023-04-09T09:21:56;34.38;;;15.73;;
45836;SDS011;31548;51.420;-0.040;2023-04-09T09:24:29;34.10;;;15.73;;
45836;SDS011;31548;51.420;-0.040;2023-04-09T09:26:58;18.58;;;9.30;;
45836;SDS011;31548;51.420;-0.040;2023-04-09T09:29:27;24.55;;;12.20;;
45836;SDS011;31548;51.420;-0.040;2023-04-09T09:31:54;21.85;;;10.88;;
45836;SDS011;31548;51.420;-0.040;2023-04-09T09:34:23;19.58;;;10.30;;
45836;SDS011;31548;51.420;-0.040;2023-04-09T09:36:51;22.13;;;9.75;;
45836;SDS011;31548;51.420;-0.040;2023-04-09T09:39:18;19.17;;;9.85;;
45836;SDS011;31548;51.420;-0.040;2023-04-09T09:41:47;17.17;;;8.63;;
45836;SDS011;31548;51.420;-0.040;2023-04-09T09:44:33;18.83;;;9.23;;
45836;SDS011;31548;51.420;-0.040;2023-04-09T09:47:02;18.95;;;9.35;;
45836;SDS011;31548;51.420;-0.040;2023-04-09T09:49:30;18.58;;;8.43;;
45836;SDS011;31548;51.420;-0.040;2023-04-09T09:51:58;12.48;;;7.13;;
45836;SDS011;31548;51.420;-0.040;2023-04-09T09:54:30;19.08;;;7.25;;
45836;SDS011;31548;51.420;-0.040;2023-04-09T09:57:04;12.75;;;7.15;;
45836;SDS011;31548;51.420;-0.040;2023-04-09T09:59:42;14.65;;;6.78;;
45836;SDS011;31548;51.420;-0.040;2023-04-09T10:02:40;11.80;;;6.97;;
45836;SDS011;31548;51.420;-0.040;2023-04-09T10:05:13;12.75;;;6.03;;
45836;SDS011;31548;51.420;-0.040;2023-04-09T10:07:42;12.85;;;6.45;;
45836;SDS011;31548;51.420;-0.040;2023-04-09T10:10:10;15.20;;;7.03;;
45836;SDS011;31548;51.420;-0.040;2023-04-09T10:12:38;11.40;;;6.53;;
45836;SDS011;31548;51.420;-0.040;2023-04-09T10:15:08;17.85;;;7.93;;
45836;SDS011;31548;51.420;-0.040;2023-04-09T10:17:35;19.17;;;7.85;;
45836;SDS011;31548;51.420;-0.040;2023-04-09T10:23:13;10.23;;;5.75;;
45836;SDS011;31548;51.420;-0.040;2023-04-09T10:25:50;13.95;;;7.05;;
45836;SDS011;31548;51.420;-0.040;2023-04-09T10:28:17;11.10;;;6.05;;
45836;SDS011;31548;51.420;-0.040;2023-04-09T10:30:45;12.10;;;6.40;;
45836;SDS011;31548;51.420;-0.040;2023-04-09T10:33:16;16.23;;;7.57;;
45836;SDS011;31548;51.420;-0.040;2023-04-09T10:35:52;15.40;;;7.30;;
45836;SDS011;31548;51.420;-0.040;2023-04-09T10:38:35;15.40;;;8.90;;
45836;SDS011;31548;51.420;-0.040;2023-04-09T10:41:08;23.75;;;12.02;;
45836;SDS011;31548;51.420;-0.040;2023-04-09T10:43:37;22.00;;;9.90;;
45836;SDS011;31548;51.420;-0.040;2023-04-09T10:46:06;13.32;;;8.10;;
45836;SDS011;31548;51.420;-0.040;2023-04-09T10:49:06;19.40;;;9.00;;
45836;SDS011;31548;51.420;-0.040;2023-04-09T10:51:37;13.35;;;7.70;;
45836;SDS011;31548;51.420;-0.040;2023-04-09T10:54:05;9.88;;;5.80;;
45836;SDS011;31548;51.420;-0.040;2023-04-09T10:59:37;20.27;;;8.55;;
45836;SDS011;31548;51.420;-0.040;2023-04-09T11:02:09;20.48;;;10.73;;
45836;SDS011;31548;51.420;-0.040;2023-04-09T11:05:17;18.90;;;10.77;;
45836;SDS011;31548;51.420;-0.040;2023-04-09T11:08:08;17.90;;;10.50;;
45836;SDS011;31548;51.420;-0.040;2023-04-09T11:10:37;19.60;;;11.75;;
45836;SDS011;31548;51.420;-0.040;2023-04-09T11:13:10;22.63;;;11.52;;
45836;SDS011;31548;51.420;-0.040;2023-04-09T11:15:39;23.50;;;9.77;;
45836;SDS011;31548;51.420;-0.040;2023-04-09T11:18:07;25.15;;;11.82;;
45836;SDS011;31548;51.420;-0.040;2023-04-09T11:20:39;18.08;;;8.98;;
45836;SDS011;31548;51.420;-0.040;2023-04-09T11:23:07;20.08;;;10.65;;
45836;SDS011;31548;51.420;-0.040;2023-04-09T11:25:34;17.52;;;9.52;;
45836;SDS011;31548;51.420;-0.040;2023-04-09T11:28:02;15.48;;;8.57;;
45836;SDS011;31548;51.420;-0.040;2023-04-09T11:30:30;16.75;;;9.85;;
45836;SDS011;31548;51.420;-0.040;2023-04-09T11:33:00;19.83;;;10.07;;
45836;SDS011;31548;51.420;-0.040;2023-04-09T11:35:28;31.40;;;15.32;;
45836;SDS011;31548;51.420;-0.040;2023-04-09T11:37:55;22.60;;;11.05;;
45836;SDS011;31548;51.420;-0.040;2023-04-09T11:40:24;29.02;;;14.25;;
45836;SDS011;31548;51.420;-0.040;2023-04-09T11:42:54;19.77;;;11.20;;
45836;SDS011;31548;51.420;-0.040;2023-04-09T11:45:23;28.63;;;12.90;;
45836;SDS011;31548;51.420;-0.040;2023-04-09T11:47:52;21.75;;;11.32;;
45836;SDS011;31548;51.420;-0.040;2023-04-09T11:50:20;18.08;;;10.10;;
45836;SDS011;31548;51.420;-0.040;2023-04-09T11:52:48;21.50;;;10.98;;
45836;SDS011;31548;51.420;-0.040;2023-04-09T11:55:26;23.40;;;11.65;;
45836;SDS011;31548;51.420;-0.040;2023-04-09T11:57:59;21.58;;;11.75;;
45836;SDS011;31548;51.420;-0.040;2023-04-09T12:00:27;19.38;;;10.18;;
45836;SDS011;31548;51.420;-0.040;2023-04-09T12:03:00;15.07;;;8.60;;
45836;SDS011;31548;51.420;-0.040;2023-04-09T12:05:32;19.40;;;10.13;;
45836;SDS011;31548;51.420;-0.040;2023-04-09T12:08:01;19.45;;;10.77;;
45836;SDS011;31548;51.420;-0.040;2023-04-09T12:10:33;20.50;;;11.40;;
45836;SDS011;31548;51.420;-0.040;2023-04-09T12:13:06;19.42;;;10.98;;
45836;SDS011;31548;51.420;-0.040;2023-04-09T12:15:36;18.30;;;10.15;;
45836;SDS011;31548;51.420;-0.040;2023-04-09T12:18:07;21.95;;;12.13;;
45836;SDS011;31548;51.420;-0.040;2023-04-09T12:20:39;22.63;;;11.63;;
45836;SDS011;31548;51.420;-0.040;2023-04-09T12:23:10;22.48;;;12.13;;
45836;SDS011;31548;51.420;-0.040;2023-04-09T12:25:39;19.13;;;9.50;;
45836;SDS011;31548;51.420;-0.040;2023-04-09T12:28:11;17.90;;;9.98;;
45836;SDS011;31548;51.420;-0.040;2023-04-09T12:30:41;20.65;;;10.77;;
45836;SDS011;31548;51.420;-0.040;2023-04-09T12:33:09;21.83;;;11.70;;
45836;SDS011;31548;51.420;-0.040;2023-04-09T12:35:37;21.38;;;9.40;;
45836;SDS011;31548;51.420;-0.040;2023-04-09T12:38:04;19.80;;;10.55;;
45836;SDS011;31548;51.420;-0.040;2023-04-09T12:40:32;12.45;;;7.95;;
45836;SDS011;31548;51.420;-0.040;2023-04-09T12:43:01;15.70;;;7.65;;
45836;SDS011;31548;51.420;-0.040;2023-04-09T12:45:28;9.75;;;5.90;;
45836;SDS011;31548;51.420;-0.040;2023-04-09T12:47:56;16.98;;;8.13;;
45836;SDS011;31548;51.420;-0.040;2023-04-09T12:50:24;14.48;;;8.32;;
45836;SDS011;31548;51.420;-0.040;2023-04-09T12:52:51;19.95;;;10.43;;
45836;SDS011;31548;51.420;-0.040;2023-04-09T12:55:19;17.95;;;9.05;;
45836;SDS011;31548;51.420;-0.040;2023-04-09T12:57:48;15.02;;;8.75;;
45836;SDS011;31548;51.420;-0.040;2023-04-09T13:00:16;18.02;;;9.77;;
45836;SDS011;31548;51.420;-0.040;2023-04-09T13:02:43;22.98;;;12.18;;
45836;SDS011;31548;51.420;-0.040;2023-04-09T13:05:11;14.40;;;8.68;;
45836;SDS011;31548;51.420;-0.040;2023-04-09T13:07:38;18.15;;;9.30;;
45836;SDS011;31548;51.420;-0.040;2023-04-09T13:10:08;17.80;;;9.52;;
45836;SDS011;31548;51.420;-0.040;2023-04-09T13:12:36;18.80;;;10.38;;
45836;SDS011;31548;51.420;-0.040;2023-04-09T13:15:03;16.17;;;8.60;;
45836;SDS011;31548;51.420;-0.040;2023-04-09T13:17:32;16.52;;;8.48;;
45836;SDS011;31548;51.420;-0.040;2023-04-09T13:20:00;14.35;;;8.38;;
45836;SDS011;31548;51.420;-0.040;2023-04-09T13:22:27;15.13;;;9.05;;
45836;SDS011;31548;51.420;-0.040;2023-04-09T13:24:55;21.55;;;10.38;;
45836;SDS011;31548;51.420;-0.040;2023-04-09T13:27:23;20.77;;;11.35;;
45836;SDS011;31548;51.420;-0.040;2023-04-09T13:29:50;14.38;;;7.93;;
45836;SDS011;31548;51.420;-0.040;2023-04-09T13:32:18;16.30;;;8.63;;
45836;SDS011;31548;51.420;-0.040;2023-04-09T13:34:49;18.38;;;10.07;;
45836;SDS011;31548;51.420;-0.040;2023-04-09T13:37:16;16.75;;;8.18;;
45836;SDS011;31548;51.420;-0.040;2023-04-09T13:39:43;13.02;;;7.95;;
45836;SDS011;31548;51.420;-0.040;2023-04-09T13:42:11;10.63;;;6.10;;
45836;SDS011;31548;51.420;-0.040;2023-04-09T13:44:40;13.48;;;7.20;;
45836;SDS011;31548;51.420;-0.040;2023-04-09T13:47:11;11.63;;;7.53;;
45836;SDS011;31548;51.420;-0.040;2023-04-09T13:49:39;8.50;;;4.97;;
45836;SDS011;31548;51.420;-0.040;2023-04-09T13:52:07;14.00;;;7.78;;
45836;SDS011;31548;51.420;-0.040;2023-04-09T13:54:35;15.90;;;7.22;;
45836;SDS011;31548;51.420;-0.040;2023-04-09T13:57:02;12.93;;;6.30;;
45836;SDS011;31548;51.420;-0.040;2023-04-09T13:59:30;8.52;;;5.90;;
45836;SDS011;31548;51.420;-0.040;2023-04-09T14:01:57;11.25;;;6.68;;
45836;SDS011;31548;51.420;-0.040;2023-04-09T14:04:25;9.25;;;5.93;;
45836;SDS011;31548;51.420;-0.040;2023-04-09T14:06:53;13.95;;;6.97;;
45836;SDS011;31548;51.420;-0.040;2023-04-09T14:09:20;10.05;;;5.78;;
45836;SDS011;31548;51.420;-0.040;2023-04-09T14:11:47;8.98;;;4.53;;
45836;SDS011;31548;51.420;-0.040;2023-04-09T14:14:15;7.28;;;3.92;;
45836;SDS011;31548;51.420;-0.040;2023-04-09T14:16:43;7.80;;;2.65;;
45836;SDS011;31548;51.420;-0.040;2023-04-09T14:19:12;7.10;;;4.05;;
45836;SDS011;31548;51.420;-0.040;2023-04-09T14:21:40;7.32;;;3.70;;
45836;SDS011;31548;51.420;-0.040;2023-04-09T14:24:07;9.15;;;5.18;;
45836;SDS011;31548;51.420;-0.040;2023-04-09T14:26:34;13.18;;;6.38;;
45836;SDS011;31548;51.420;-0.040;2023-04-09T14:29:02;11.80;;;6.25;;
45836;SDS011;31548;51.420;-0.040;2023-04-09T14:31:30;10.98;;;5.95;;
45836;SDS011;31548;51.420;-0.040;2023-04-09T14:33:57;12.90;;;7.07;;
45836;SDS011;31548;51.420;-0.040;2023-04-09T14:36:24;8.00;;;5.13;;
45836;SDS011;31548;51.420;-0.040;2023-04-09T14:38:53;8.85;;;5.15;;
45836;SDS011;31548;51.420;-0.040;2023-04-09T14:41:23;10.27;;;5.50;;
45836;SDS011;31548;51.420;-0.040;2023-04-09T14:43:50;8.73;;;4.47;;
45836;SDS011;31548;51.420;-0.040;2023-04-09T14:46:18;7.90;;;4.55;;